Time;durP1;ratioP1;P1;durP2;ratioP2;P2;SDS_P1;SDS_P2;PMS_P1;PMS_P2;Temp;Humidity;BMP_temperature;BMP_pressure;BME280_temperature;BME280_humidity;BME280_pressure;Samples;Min_cycle;Max_cycle;Signal;HPM_P1;HPM_P2
2022/10/25 00:01:53;;;;;;;14.73;8.47;;;15.30;99.90;;;;;;5089834;28;20200;-73
2022/10/25 00:04:21;;;;;;;14.00;8.37;;;15.30;99.90;;;;;;5088565;28;20236;-73
2022/10/25 00:06:48;;;;;;;12.60;8.47;;;15.30;99.90;;;;;;5090099;28;20247;-73
2022/10/25 00:09:14;;;;;;;14.20;8.77;;;15.30;99.90;;;;;;5084808;28;20201;-73
2022/10/25 00:11:42;;;;;;;14.50;8.80;;;15.30;99.90;;;;;;5089525;28;20208;-73
2022/10/25 00:14:08;;;;;;;16.83;8.57;;;15.30;99.90;;;;;;5080910;28;20200;-72
2022/10/25 00:16:37;;;;;;;14.33;8.63;;;15.30;99.90;;;;;;5090372;28;20654;-73
2022/10/25 00:19:05;;;;;;;12.50;8.30;;;15.20;99.90;;;;;;5085705;28;20218;-73
2022/10/25 00:21:33;;;;;;;12.13;8.20;;;15.20;99.90;;;;;;5086430;28;20700;-73
2022/10/25 00:24:00;;;;;;;11.83;7.70;;;15.10;99.90;;;;;;5094029;28;20803;-73
2022/10/25 00:26:26;;;;;;;16.67;8.03;;;15.20;99.90;;;;;;5090608;28;20200;-73
2022/10/25 00:28:54;;;;;;;17.90;7.83;;;15.10;99.90;;;;;;5091502;28;20216;-74
2022/10/25 00:31:21;;;;;;;13.50;8.00;;;15.20;99.90;;;;;;5091195;28;20226;-74
2022/10/25 00:33:48;;;;;;;12.23;8.40;;;15.00;99.90;;;;;;5085214;28;20665;-73
2022/10/25 00:36:17;;;;;;;12.07;8.20;;;15.10;99.90;;;;;;5090853;28;20215;-73
2022/10/25 00:38:46;;;;;;;14.53;7.70;;;15.10;99.90;;;;;;5093846;28;20707;-72
2022/10/25 00:41:13;;;;;;;10.03;7.47;;;15.10;99.90;;;;;;5094646;28;20572;-73
2022/10/25 00:43:42;;;;;;;11.00;7.53;;;15.00;99.90;;;;;;5093971;28;20211;-73
2022/10/25 00:46:17;;;;;;;11.40;7.80;;;15.00;99.90;;;;;;5090788;28;20228;-72
2022/10/25 00:48:53;;;;;;;12.67;7.63;;;15.00;99.90;;;;;;5092567;28;20207;-73
2022/10/25 00:51:21;;;;;;;11.57;7.07;;;15.00;99.90;;;;;;5091016;28;20231;-73
2022/10/25 00:53:50;;;;;;;12.07;7.93;;;14.90;99.90;;;;;;5091595;28;20622;-73
2022/10/25 00:56:21;;;;;;;11.07;7.87;;;14.90;99.90;;;;;;5092227;28;20205;-73
2022/10/25 00:58:53;;;;;;;14.77;7.83;;;14.90;99.90;;;;;;5091963;28;20704;-73
2022/10/25 01:01:19;;;;;;;12.80;7.40;;;14.90;99.90;;;;;;5089223;28;20219;-73
2022/10/25 01:03:49;;;;;;;17.17;8.33;;;14.90;99.90;;;;;;5089680;28;20220;-72
2022/10/25 01:06:21;;;;;;;8.60;7.00;;;14.90;99.90;;;;;;5092062;28;20236;-73
2022/10/25 01:08:51;;;;;;;9.87;7.53;;;14.90;99.90;;;;;;5092053;28;20209;-74
2022/10/25 01:11:19;;;;;;;9.13;7.20;;;14.90;99.90;;;;;;5091812;28;20204;-73
2022/10/25 01:13:47;;;;;;;9.57;7.30;;;14.90;99.90;;;;;;5091016;28;20208;-73
2022/10/25 01:16:24;;;;;;;14.67;7.97;;;14.90;99.90;;;;;;5090411;28;20213;-73
2022/10/25 01:18:59;;;;;;;9.47;7.03;;;14.90;99.90;;;;;;5092042;28;20205;-73
2022/10/25 01:21:44;;;;;;;10.57;7.67;;;14.90;99.90;;;;;;5088229;28;20215;-72
2022/10/25 01:24:46;;;;;;;12.70;7.73;;;14.90;99.90;;;;;;5085215;28;20264;-75
2022/10/25 01:27:44;;;;;;;9.13;7.23;;;14.90;99.90;;;;;;5075855;28;20208;-72
2022/10/25 01:30:15;;;;;;;12.17;8.23;;;14.90;99.90;;;;;;5088510;28;20649;-73
2022/10/25 01:32:49;;;;;;;11.03;7.70;;;14.90;99.90;;;;;;5089613;28;20201;-73
2022/10/25 01:35:26;;;;;;;10.30;7.30;;;14.90;99.90;;;;;;5091059;28;20196;-73
2022/10/25 01:38:06;;;;;;;10.20;6.47;;;14.90;99.90;;;;;;5091350;28;20196;-73
2022/10/25 01:40:42;;;;;;;10.60;7.23;;;14.80;99.90;;;;;;5089341;28;20216;-73
2022/10/25 01:43:14;;;;;;;11.00;7.40;;;14.90;99.90;;;;;;5090878;28;20204;-73
2022/10/25 01:45:45;;;;;;;11.00;6.83;;;14.80;99.90;;;;;;5092611;28;20693;-72
2022/10/25 01:48:18;;;;;;;12.03;6.70;;;14.80;99.90;;;;;;5092987;28;20227;-72
2022/10/25 01:50:46;;;;;;;8.77;5.90;;;14.80;99.90;;;;;;5093590;28;20216;-73
2022/10/25 01:53:13;;;;;;;11.77;6.07;;;14.80;99.90;;;;;;5090903;28;20231;-73
2022/10/25 01:55:46;;;;;;;10.80;7.23;;;14.80;99.90;;;;;;5090528;28;20205;-73
2022/10/25 01:58:24;;;;;;;8.90;6.37;;;14.80;99.90;;;;;;5087111;28;20740;-73
2022/10/25 02:01:13;;;;;;;8.10;6.33;;;14.80;99.90;;;;;;5091070;28;20211;-72
2022/10/25 02:03:49;;;;;;;11.80;7.57;;;14.90;99.90;;;;;;5091470;28;20201;-73
2022/10/25 02:06:24;;;;;;;9.53;6.30;;;14.90;99.90;;;;;;5093408;28;20618;-73
2022/10/25 02:08:59;;;;;;;10.03;7.10;;;14.90;99.90;;;;;;5087523;28;20230;-74
2022/10/25 02:11:28;;;;;;;9.90;6.43;;;14.90;99.90;;;;;;5091659;28;20196;-73
2022/10/25 02:14:05;;;;;;;9.33;7.40;;;14.80;99.90;;;;;;5092668;28;20200;-72
2022/10/25 02:16:38;;;;;;;11.00;7.17;;;14.90;99.90;;;;;;5092831;28;20204;-72
2022/10/25 02:19:08;;;;;;;11.27;7.20;;;14.90;99.90;;;;;;5088067;28;20216;-73
2022/10/25 02:21:37;;;;;;;11.10;7.20;;;14.80;99.90;;;;;;5091402;28;20204;-73
2022/10/25 02:24:08;;;;;;;8.63;6.47;;;14.80;99.90;;;;;;5091585;28;20224;-73
2022/10/25 02:26:36;;;;;;;10.53;6.83;;;14.80;99.90;;;;;;5091012;28;20212;-73
2022/10/25 02:29:04;;;;;;;10.73;7.70;;;14.80;99.90;;;;;;5093191;28;20212;-73
2022/10/25 02:31:35;;;;;;;9.40;7.27;;;14.80;99.90;;;;;;5093961;28;20207;-73
2022/10/25 02:34:02;;;;;;;10.80;7.43;;;14.80;99.90;;;;;;5092265;28;20200;-73
2022/10/25 02:36:31;;;;;;;10.47;7.17;;;14.80;99.90;;;;;;5089723;28;20224;-72
2022/10/25 02:38:59;;;;;;;13.00;7.10;;;14.80;99.90;;;;;;5090825;28;20290;-73
2022/10/25 02:41:26;;;;;;;9.10;6.83;;;14.70;99.90;;;;;;5090651;28;20209;-73
2022/10/25 02:43:53;;;;;;;10.20;7.37;;;14.70;99.90;;;;;;5093309;28;20209;-73
2022/10/25 02:46:22;;;;;;;13.03;7.87;;;14.70;99.90;;;;;;5084704;28;20233;-72
2022/10/25 02:48:50;;;;;;;12.27;7.70;;;14.70;99.90;;;;;;5092315;28;20215;-73
2022/10/25 02:51:18;;;;;;;12.43;7.57;;;14.60;99.90;;;;;;5090424;28;20208;-72
2022/10/25 02:53:46;;;;;;;10.90;6.80;;;14.70;99.90;;;;;;5090389;28;20646;-73
2022/10/25 02:56:15;;;;;;;11.37;7.13;;;14.60;99.90;;;;;;5087350;28;20204;-72
2022/10/25 02:58:44;;;;;;;9.33;7.27;;;14.60;99.90;;;;;;5092992;28;20208;-72
2022/10/25 03:01:12;;;;;;;10.57;7.27;;;14.70;99.90;;;;;;5091797;28;20221;-72
2022/10/25 03:03:39;;;;;;;9.77;7.23;;;14.70;99.90;;;;;;5093656;28;20219;-72
2022/10/25 03:06:07;;;;;;;14.37;7.37;;;14.70;99.90;;;;;;5091285;28;20236;-72
2022/10/25 03:08:34;;;;;;;10.87;8.20;;;14.70;99.90;;;;;;5092754;28;20208;-73
2022/10/25 03:11:03;;;;;;;11.70;6.43;;;14.70;99.90;;;;;;5086030;28;20208;-73
2022/10/25 03:13:30;;;;;;;9.20;6.90;;;14.60;99.90;;;;;;5088804;28;20207;-73
2022/10/25 03:15:57;;;;;;;10.63;6.87;;;14.60;99.90;;;;;;5089718;28;20200;-72
2022/10/25 03:18:24;;;;;;;14.43;7.77;;;14.60;99.90;;;;;;5090453;28;20213;-73
2022/10/25 03:20:51;;;;;;;9.87;7.00;;;14.70;99.90;;;;;;5091132;28;20209;-74
2022/10/25 03:23:18;;;;;;;10.03;7.50;;;14.60;99.90;;;;;;5087899;28;20882;-73
2022/10/25 03:25:45;;;;;;;12.00;7.27;;;14.70;99.90;;;;;;5090833;28;20236;-73
2022/10/25 03:28:13;;;;;;;13.70;7.60;;;14.60;99.90;;;;;;5089687;28;20832;-73
2022/10/25 03:30:42;;;;;;;11.00;7.77;;;14.60;99.90;;;;;;5089596;28;20208;-73
2022/10/25 03:33:09;;;;;;;12.23;8.13;;;14.60;99.90;;;;;;5089853;28;20262;-73
2022/10/25 03:35:35;;;;;;;9.47;7.83;;;14.60;99.90;;;;;;5093836;28;20209;-73
2022/10/25 03:38:03;;;;;;;11.60;7.87;;;14.60;99.90;;;;;;5092377;28;20208;-72
2022/10/25 03:40:30;;;;;;;11.10;8.00;;;14.60;99.90;;;;;;5090500;28;20223;-72
2022/10/25 03:42:56;;;;;;;10.33;7.50;;;14.60;99.90;;;;;;5092503;28;20212;-73
2022/10/25 03:45:24;;;;;;;10.20;7.43;;;14.60;99.90;;;;;;5091067;28;20224;-72
2022/10/25 03:47:51;;;;;;;13.80;8.23;;;14.60;99.90;;;;;;5091349;28;20201;-72
2022/10/25 03:50:18;;;;;;;11.20;8.70;;;14.50;99.90;;;;;;5091443;28;20200;-72
2022/10/25 03:52:45;;;;;;;10.53;7.63;;;14.50;99.90;;;;;;5091763;28;20211;-73
2022/10/25 03:55:12;;;;;;;10.17;7.70;;;14.60;99.90;;;;;;5088291;28;20203;-73
2022/10/25 03:57:39;;;;;;;9.63;7.57;;;14.50;99.90;;;;;;5089909;28;20685;-73
2022/10/25 04:00:06;;;;;;;10.73;7.33;;;14.50;99.90;;;;;;5090080;28;20204;-72
2022/10/25 04:02:34;;;;;;;11.60;7.43;;;14.50;99.90;;;;;;5090747;28;20218;-72
2022/10/25 04:05:01;;;;;;;12.23;8.70;;;14.50;99.90;;;;;;5089531;28;20212;-73
2022/10/25 04:07:28;;;;;;;11.30;7.97;;;14.50;99.90;;;;;;5089632;28;20200;-73
2022/10/25 04:09:55;;;;;;;14.60;8.27;;;14.50;99.90;;;;;;5089380;28;20676;-73
2022/10/25 04:12:21;;;;;;;11.23;7.40;;;14.50;99.90;;;;;;5090964;28;20570;-73
2022/10/25 04:14:48;;;;;;;9.10;6.83;;;14.50;99.90;;;;;;5086357;28;20208;-73
2022/10/25 04:17:15;;;;;;;9.00;6.97;;;14.50;99.90;;;;;;5088268;28;20216;-73
2022/10/25 04:19:43;;;;;;;9.33;7.13;;;14.50;99.90;;;;;;5089676;28;20676;-73
2022/10/25 04:22:12;;;;;;;8.90;7.17;;;14.50;99.90;;;;;;5088141;28;20221;-73
2022/10/25 04:24:38;;;;;;;10.23;7.20;;;14.50;99.90;;;;;;5087575;28;20201;-73
2022/10/25 04:27:05;;;;;;;13.27;8.07;;;14.50;99.90;;;;;;5089846;28;20221;-73
2022/10/25 04:29:32;;;;;;;13.33;8.00;;;14.50;99.90;;;;;;5087834;28;20215;-73
2022/10/25 04:31:59;;;;;;;12.30;7.73;;;14.50;99.90;;;;;;5088650;28;20671;-73
2022/10/25 04:34:25;;;;;;;10.97;7.17;;;14.50;99.90;;;;;;5089679;28;20201;-73
2022/10/25 04:36:54;;;;;;;11.07;7.57;;;14.50;99.90;;;;;;5090133;28;20569;-74
2022/10/25 04:39:20;;;;;;;12.40;8.50;;;14.50;99.90;;;;;;5088676;28;20213;-73
2022/10/25 04:41:47;;;;;;;11.20;8.00;;;14.50;99.90;;;;;;5092313;28;20682;-74
2022/10/25 04:44:14;;;;;;;12.40;7.70;;;14.50;99.90;;;;;;5087587;28;20204;-72
2022/10/25 04:46:41;;;;;;;10.77;8.00;;;14.50;99.90;;;;;;5090232;28;20618;-73
2022/10/25 04:49:09;;;;;;;12.30;8.53;;;14.40;99.90;;;;;;5091062;28;20209;-73
2022/10/25 04:51:36;;;;;;;10.40;7.73;;;14.40;99.90;;;;;;5090411;28;20209;-73
2022/10/25 04:54:04;;;;;;;12.63;8.30;;;14.40;99.90;;;;;;5089453;28;20564;-74
2022/10/25 04:56:31;;;;;;;13.47;8.57;;;14.40;99.90;;;;;;5092125;28;20597;-73
2022/10/25 04:58:58;;;;;;;13.20;8.63;;;14.40;99.90;;;;;;5089388;28;20212;-73
2022/10/25 05:01:26;;;;;;;12.40;8.30;;;14.40;99.90;;;;;;5076347;28;20219;-73
2022/10/25 05:03:52;;;;;;;15.40;8.87;;;14.40;99.90;;;;;;5081137;28;20236;-75
2022/10/25 05:06:21;;;;;;;14.33;8.67;;;14.40;99.90;;;;;;5078576;28;20237;-73
2022/10/25 05:08:50;;;;;;;16.00;9.37;;;14.40;99.90;;;;;;5082915;28;20669;-72
2022/10/25 05:11:20;;;;;;;13.50;9.93;;;14.40;99.90;;;;;;5086762;28;20661;-71
2022/10/25 05:13:47;;;;;;;11.93;8.67;;;14.40;99.90;;;;;;5093499;28;20193;-71
2022/10/25 05:16:16;;;;;;;11.07;9.10;;;14.40;99.90;;;;;;5087787;28;20208;-73
2022/10/25 05:18:44;;;;;;;13.90;9.20;;;14.40;99.90;;;;;;5092435;28;20665;-75
2022/10/25 05:21:11;;;;;;;11.00;9.00;;;14.40;99.90;;;;;;5087859;28;20220;-73
2022/10/25 05:23:38;;;;;;;12.70;9.87;;;14.30;99.90;;;;;;5091861;28;20239;-73
2022/10/25 05:26:07;;;;;;;12.40;8.60;;;14.30;99.90;;;;;;5087795;28;20224;-72
2022/10/25 05:28:37;;;;;;;14.93;9.23;;;14.30;99.90;;;;;;5089576;28;20212;-74
2022/10/25 05:31:04;;;;;;;14.40;9.40;;;14.30;99.90;;;;;;5088309;28;20204;-73
2022/10/25 05:33:31;;;;;;;12.03;9.67;;;14.30;99.90;;;;;;5089369;28;20216;-72
2022/10/25 05:35:59;;;;;;;12.90;10.30;;;14.30;99.90;;;;;;5079690;28;20215;-73
2022/10/25 05:38:26;;;;;;;12.17;9.67;;;14.20;99.90;;;;;;5088084;28;20212;-72
2022/10/25 05:40:54;;;;;;;12.73;9.70;;;14.20;99.90;;;;;;5084068;28;20216;-71
2022/10/25 05:43:21;;;;;;;16.20;10.63;;;14.20;99.90;;;;;;5091028;28;20280;-72
2022/10/25 05:45:50;;;;;;;15.23;10.33;;;14.20;99.90;;;;;;5090204;28;20212;-75
2022/10/25 05:48:18;;;;;;;13.93;11.10;;;14.30;99.90;;;;;;5087119;28;20212;-77
2022/10/25 05:50:45;;;;;;;13.57;11.03;;;14.20;99.90;;;;;;5087478;28;20266;-71
2022/10/25 05:53:12;;;;;;;17.80;12.83;;;14.20;99.90;;;;;;5083249;28;20692;-73
2022/10/25 05:55:39;;;;;;;14.67;11.60;;;14.20;99.90;;;;;;5086460;28;20231;-72
2022/10/25 05:58:05;;;;;;;18.17;12.87;;;14.20;99.90;;;;;;5092183;28;20669;-73
2022/10/25 06:00:32;;;;;;;18.13;13.27;;;14.20;99.90;;;;;;5081748;28;20216;-71
2022/10/25 06:03:02;;;;;;;17.50;12.93;;;14.30;99.90;;;;;;5088516;28;20969;-75
2022/10/25 06:05:32;;;;;;;16.93;12.63;;;14.30;99.90;;;;;;5081944;28;20236;-74
2022/10/25 06:07:59;;;;;;;15.48;13.05;;;14.20;99.90;;;;;;5081386;28;20897;-73
2022/10/25 06:10:26;;;;;;;16.53;12.53;;;14.30;99.90;;;;;;5088597;28;20197;-72
2022/10/25 06:12:53;;;;;;;19.63;13.05;;;14.20;99.90;;;;;;5089875;28;20437;-72
2022/10/25 06:15:20;;;;;;;16.60;12.63;;;14.20;99.90;;;;;;5086731;28;20457;-71
2022/10/25 06:17:47;;;;;;;14.57;11.60;;;14.20;99.90;;;;;;5089686;28;20208;-72
2022/10/25 06:20:15;;;;;;;18.63;11.40;;;14.30;99.90;;;;;;5084586;28;20204;-72
2022/10/25 06:22:42;;;;;;;15.60;12.32;;;14.30;99.90;;;;;;5090421;28;20452;-73
2022/10/25 06:25:09;;;;;;;19.40;11.47;;;14.40;99.90;;;;;;5088336;28;20723;-72
2022/10/25 06:27:36;;;;;;;25.67;17.40;;;14.40;99.90;;;;;;5087365;28;20448;-74
2022/10/25 06:30:03;;;;;;;18.87;13.33;;;14.50;99.90;;;;;;5093455;28;20201;-76
2022/10/25 06:32:30;;;;;;;18.73;11.07;;;14.50;99.90;;;;;;5087517;28;20236;-75
2022/10/25 06:34:57;;;;;;;14.67;10.90;;;14.60;99.90;;;;;;5095806;28;20205;-79
2022/10/25 06:37:25;;;;;;;20.40;13.23;;;14.60;99.90;;;;;;5089515;28;20204;-74
2022/10/25 06:39:52;;;;;;;16.63;12.07;;;14.60;99.90;;;;;;5092144;28;20588;-74
2022/10/25 06:42:19;;;;;;;15.50;11.17;;;14.70;99.90;;;;;;5093449;28;20211;-74
2022/10/25 06:44:46;;;;;;;16.90;9.40;;;14.80;99.90;;;;;;5089037;28;20506;-73
2022/10/25 06:47:13;;;;;;;16.17;10.57;;;14.90;99.90;;;;;;5092718;28;20236;-75
2022/10/25 06:49:39;;;;;;;14.07;10.00;;;15.00;99.90;;;;;;5090512;28;20232;-73
2022/10/25 06:52:06;;;;;;;13.97;9.57;;;15.10;99.90;;;;;;5089069;28;20746;-69
2022/10/25 06:54:34;;;;;;;14.30;11.77;;;15.20;99.90;;;;;;5080012;28;20204;-70
2022/10/25 06:57:01;;;;;;;17.00;10.95;;;15.20;99.90;;;;;;5087598;28;20205;-75
2022/10/25 06:59:28;;;;;;;16.10;10.77;;;15.30;99.90;;;;;;5088643;28;20211;-72
2022/10/25 07:01:56;;;;;;;15.50;9.73;;;15.30;99.90;;;;;;5091172;28;20420;-72
2022/10/25 07:04:22;;;;;;;13.93;9.23;;;15.40;99.90;;;;;;5089030;28;20204;-71
2022/10/25 07:06:49;;;;;;;14.03;9.83;;;15.40;99.90;;;;;;5090214;28;20247;-71
2022/10/25 07:09:16;;;;;;;16.17;10.20;;;15.60;99.90;;;;;;5087188;28;20235;-75
2022/10/25 07:11:44;;;;;;;14.00;10.40;;;15.60;99.90;;;;;;5085778;28;20219;-75
2022/10/25 07:14:11;;;;;;;14.80;9.30;;;15.70;99.90;;;;;;5083273;28;20254;-72
2022/10/25 07:16:38;;;;;;;12.25;9.13;;;15.90;99.90;;;;;;5082349;28;20210;-75
2022/10/25 07:19:05;;;;;;;14.30;9.50;;;16.00;99.90;;;;;;5079941;28;20204;-77
2022/10/25 07:21:33;;;;;;;12.80;8.37;;;16.20;99.90;;;;;;5082467;28;20645;-76
2022/10/25 07:24:01;;;;;;;12.77;8.57;;;16.50;99.90;;;;;;5083930;28;20711;-76
2022/10/25 07:26:29;;;;;;;13.65;9.02;;;16.60;99.90;;;;;;5090287;28;20230;-75
2022/10/25 07:29:02;;;;;;;13.50;9.20;;;16.80;99.90;;;;;;5078499;28;20331;-77
2022/10/25 07:31:31;;;;;;;12.20;9.23;;;16.90;99.90;;;;;;5082325;28;20650;-76
2022/10/25 07:34:00;;;;;;;13.23;8.45;;;17.10;99.90;;;;;;5080457;28;20204;-76
2022/10/25 07:36:28;;;;;;;13.18;8.32;;;17.20;99.90;;;;;;5079507;28;20217;-76
2022/10/25 07:38:55;;;;;;;10.40;8.20;;;17.40;99.90;;;;;;5079699;28;20261;-77
2022/10/25 07:41:23;;;;;;;15.50;8.55;;;17.60;99.90;;;;;;5081490;28;20673;-74
2022/10/25 07:43:49;;;;;;;13.05;8.63;;;17.70;99.90;;;;;;5078519;28;20208;-74
2022/10/25 07:46:18;;;;;;;15.00;8.23;;;18.00;99.90;;;;;;5081715;28;20585;-76
2022/10/25 07:48:45;;;;;;;11.65;7.80;;;18.10;99.90;;;;;;5083451;28;20721;-71
2022/10/25 07:51:14;;;;;;;8.43;7.53;;;18.20;99.90;;;;;;5074479;28;20213;-72
2022/10/25 07:53:41;;;;;;;12.25;6.72;;;18.30;99.90;;;;;;5082240;28;20204;-74
2022/10/25 07:56:13;;;;;;;11.10;6.55;;;18.30;99.90;;;;;;5080814;28;20541;-70
2022/10/25 07:58:42;;;;;;;11.82;6.82;;;18.20;99.90;;;;;;5078888;28;20676;-72
2022/10/25 08:01:10;;;;;;;9.75;7.35;;;18.10;99.90;;;;;;5076338;28;20851;-73
2022/10/25 08:03:38;;;;;;;8.95;6.47;;;18.00;99.90;;;;;;5080055;28;20219;-74
2022/10/25 08:06:06;;;;;;;8.88;6.72;;;18.00;99.90;;;;;;5083096;28;20236;-77
2022/10/25 08:08:32;;;;;;;11.90;6.40;;;18.10;99.90;;;;;;5087410;28;20232;-75
2022/10/25 08:11:02;;;;;;;8.07;6.95;;;18.10;99.90;;;;;;5090727;28;20212;-76
2022/10/25 08:13:29;;;;;;;11.25;6.43;;;18.10;99.90;;;;;;5090860;28;20221;-78
2022/10/25 08:15:56;;;;;;;12.32;6.82;;;17.90;99.90;;;;;;5092939;28;20744;-76
2022/10/25 08:18:24;;;;;;;10.88;6.80;;;17.70;99.90;;;;;;5091525;28;20211;-74
2022/10/25 08:20:52;;;;;;;12.77;6.47;;;17.60;99.90;;;;;;5090071;28;20215;-74
2022/10/25 08:23:19;;;;;;;11.02;6.20;;;17.60;99.90;;;;;;5092612;28;20234;-71
2022/10/25 08:25:46;;;;;;;8.10;6.63;;;17.80;99.90;;;;;;5088976;28;20205;-75
2022/10/25 08:28:13;;;;;;;11.20;6.65;;;18.00;99.90;;;;;;5085003;28;20213;-71
2022/10/25 08:30:40;;;;;;;8.52;6.43;;;18.10;99.90;;;;;;5089678;28;20301;-74
2022/10/25 08:33:07;;;;;;;11.75;6.57;;;18.30;99.90;;;;;;5085680;28;20200;-74
2022/10/25 08:35:34;;;;;;;10.73;7.03;;;18.50;99.90;;;;;;5089496;28;20212;-72
2022/10/25 08:38:03;;;;;;;6.90;6.22;;;18.50;99.90;;;;;;5088046;28;20197;-74
2022/10/25 08:40:42;;;;;;;9.93;6.63;;;18.30;99.90;;;;;;5088125;28;20209;-77
2022/10/25 08:43:24;;;;;;;10.38;6.22;;;18.10;99.90;;;;;;5087206;28;20235;-73
2022/10/25 08:45:56;;;;;;;10.52;7.07;;;18.00;99.90;;;;;;5090845;28;20212;-75
2022/10/25 08:48:27;;;;;;;9.35;6.78;;;17.90;99.90;;;;;;5094075;28;20234;-74
2022/10/25 08:50:57;;;;;;;11.80;6.72;;;17.70;99.90;;;;;;5091295;28;20197;-74
2022/10/25 08:53:30;;;;;;;10.05;5.93;;;17.50;99.90;;;;;;5087910;28;20204;-75
2022/10/25 08:55:57;;;;;;;11.00;6.78;;;17.30;99.90;;;;;;5088596;28;20197;-72
2022/10/25 08:58:28;;;;;;;9.65;7.47;;;17.20;99.90;;;;;;5085336;28;20200;-74
2022/10/25 09:00:56;;;;;;;9.95;8.18;;;17.00;99.90;;;;;;5084248;28;20649;-74
2022/10/25 09:03:25;;;;;;;11.95;9.15;;;16.90;99.90;;;;;;5088313;28;20216;-74
2022/10/25 09:06:01;;;;;;;12.70;8.52;;;16.90;99.90;;;;;;5087793;28;20247;-74
2022/10/25 09:08:48;;;;;;;10.75;8.90;;;16.90;99.90;;;;;;5085212;28;20220;-73
2022/10/25 09:11:26;;;;;;;12.18;8.57;;;16.90;99.90;;;;;;5090146;28;20211;-74
2022/10/25 09:13:59;;;;;;;9.95;8.23;;;17.00;99.90;;;;;;5088866;28;20211;-73
2022/10/25 09:16:33;;;;;;;10.57;8.43;;;17.00;99.90;;;;;;5085936;28;20199;-74
2022/10/25 09:19:00;;;;;;;11.45;7.00;;;17.20;99.90;;;;;;5082331;28;20293;-73
2022/10/25 09:21:37;;;;;;;9.55;7.07;;;17.40;99.90;;;;;;5087771;28;20215;-74
2022/10/25 09:24:13;;;;;;;10.63;6.80;;;17.60;99.90;;;;;;5087332;28;20231;-73
2022/10/25 09:26:42;;;;;;;8.75;7.00;;;18.00;99.90;;;;;;5083730;28;20570;-74
2022/10/25 09:29:23;;;;;;;8.70;6.43;;;18.40;99.90;;;;;;5089764;28;20232;-74
2022/10/25 09:31:54;;;;;;;9.18;6.53;;;19.40;99.90;;;;;;5090527;28;20262;-75
2022/10/25 09:34:22;;;;;;;16.38;7.47;;;20.30;99.90;;;;;;5088969;28;20214;-74
2022/10/25 09:36:53;;;;;;;9.20;6.50;;;20.80;99.90;;;;;;5094267;28;20220;-73
2022/10/25 09:39:30;;;;;;;9.75;7.10;;;21.00;99.90;;;;;;5091322;28;20253;-72
2022/10/25 09:41:59;;;;;;;6.60;5.90;;;21.10;99.90;;;;;;5092495;28;20204;-73
2022/10/25 09:44:36;;;;;;;8.27;6.68;;;20.90;99.90;;;;;;5088544;28;20204;-75
2022/10/25 09:47:14;;;;;;;10.95;7.13;;;20.70;99.90;;;;;;5087558;28;20203;-74
2022/10/25 09:49:51;;;;;;;9.35;7.25;;;20.30;99.90;;;;;;5090034;28;20203;-75
2022/10/25 09:52:26;;;;;;;7.93;6.95;;;20.00;99.90;;;;;;5092603;28;20189;-75
2022/10/25 09:55:05;;;;;;;10.05;7.13;;;19.60;99.90;;;;;;5093451;28;20211;-73
2022/10/25 09:57:32;;;;;;;9.18;6.65;;;19.50;99.90;;;;;;5094286;28;20212;-75
2022/10/25 09:59:59;;;;;;;9.93;7.00;;;19.20;99.90;;;;;;5089925;28;20201;-74
2022/10/25 10:02:27;;;;;;;10.05;6.90;;;19.00;99.90;;;;;;5095438;28;20200;-75
2022/10/25 10:04:54;;;;;;;9.00;7.35;;;18.70;99.90;;;;;;5096374;28;20213;-76
2022/10/25 10:07:27;;;;;;;12.13;7.85;;;18.50;99.90;;;;;;5096348;28;20236;-75
2022/10/25 10:10:00;;;;;;;14.15;7.35;;;18.30;99.90;;;;;;5094294;28;20200;-72
2022/10/25 10:12:35;;;;;;;11.13;7.22;;;18.50;99.90;;;;;;5094025;28;20200;-72
2022/10/25 10:15:08;;;;;;;9.32;7.45;;;19.10;99.90;;;;;;5093626;28;20200;-72
2022/10/25 10:17:35;;;;;;;10.40;7.95;;;19.90;99.90;;;;;;5091471;28;20201;-72
2022/10/25 10:20:12;;;;;;;10.35;6.82;;;20.20;99.90;;;;;;5089543;28;20200;-72
2022/10/25 10:22:45;;;;;;;11.73;7.22;;;20.70;99.90;;;;;;5090492;28;20236;-72
2022/10/25 10:25:19;;;;;;;7.82;7.07;;;20.70;99.90;;;;;;5089648;28;20200;-72
2022/10/25 10:27:47;;;;;;;10.13;6.82;;;21.40;99.90;;;;;;5092779;28;20239;-72
2022/10/25 10:30:22;;;;;;;7.65;6.40;;;21.60;99.90;;;;;;5091852;28;20208;-72
2022/10/25 10:32:54;;;;;;;12.20;7.40;;;21.90;99.90;;;;;;5091424;28;20257;-72
2022/10/25 10:35:31;;;;;;;12.13;6.43;;;22.60;99.90;;;;;;5090006;28;20208;-72
2022/10/25 10:38:14;;;;;;;9.40;6.28;;;23.90;99.90;;;;;;5089419;28;20204;-73
2022/10/25 10:40:42;;;;;;;8.77;6.35;;;24.70;99.90;;;;;;5089565;28;20200;-73
2022/10/25 10:43:33;;;;;;;10.35;5.38;;;24.90;99.90;;;;;;5088762;28;20282;-71
2022/10/25 10:46:07;;;;;;;10.40;4.88;;;25.60;99.90;;;;;;5075351;28;20680;-72
2022/10/25 10:48:39;;;;;;;6.93;4.53;;;25.40;99.90;;;;;;5092778;28;20215;-71
2022/10/25 10:51:06;;;;;;;8.02;5.13;;;25.30;99.90;;;;;;5093394;28;20286;-74
2022/10/25 10:53:34;;;;;;;11.60;4.63;;;25.00;99.60;;;;;;5092748;28;20205;-73
2022/10/25 10:56:04;;;;;;;7.88;4.90;;;24.60;99.90;;;;;;5090895;28;20208;-74
2022/10/25 10:58:34;;;;;;;6.82;4.93;;;24.30;99.90;;;;;;5094086;28;20197;-74
2022/10/25 11:01:03;;;;;;;7.55;4.28;;;24.40;99.90;;;;;;5090400;28;20608;-74
2022/10/25 11:03:47;;;;;;;8.70;4.40;;;25.70;99.90;;;;;;5093527;28;20551;-74
2022/10/25 11:06:18;;;;;;;7.38;4.28;;;28.00;98.90;;;;;;5087305;28;20252;-73
2022/10/25 11:08:47;;;;;;;7.22;4.05;;;29.40;91.70;;;;;;5089136;28;20224;-73
2022/10/25 11:11:18;;;;;;;6.50;4.20;;;29.90;87.30;;;;;;5090949;28;20211;-73
2022/10/25 11:13:54;;;;;;;8.25;4.35;;;29.80;83.00;;;;;;5086070;28;20261;-72
2022/10/25 11:16:50;;;;;;;4.43;3.97;;;28.80;80.70;;;;;;5088723;28;20205;-74
2022/10/25 11:19:49;;;;;;;6.97;4.03;;;27.40;84.00;;;;;;5091479;28;20203;-73
2022/10/25 11:22:47;;;;;;;8.40;4.13;;;26.30;92.10;;;;;;5084896;28;20265;-73
2022/10/25 11:25:28;;;;;;;8.50;4.18;;;25.50;90.30;;;;;;5081318;28;20582;-73
2022/10/25 11:28:18;;;;;;;6.60;3.88;;;24.60;91.40;;;;;;5087120;28;20608;-72
2022/10/25 11:30:54;;;;;;;6.53;4.43;;;24.00;93.10;;;;;;5085255;28;20204;-74
2022/10/25 11:33:32;;;;;;;6.82;4.30;;;23.40;93.70;;;;;;5090852;28;20204;-73
2022/10/25 11:36:31;;;;;;;11.25;5.00;;;22.70;95.00;;;;;;5093150;28;20200;-73
2022/10/25 11:39:06;;;;;;;6.90;5.03;;;22.10;96.90;;;;;;5085160;28;20220;-71
2022/10/25 11:41:43;;;;;;;10.77;5.00;;;21.60;98.40;;;;;;5093414;28;20187;-76
2022/10/25 11:44:41;;;;;;;6.93;4.65;;;21.20;99.80;;;;;;5094300;28;20227;-77
2022/10/25 11:47:15;;;;;;;7.32;5.15;;;20.90;99.90;;;;;;5094929;28;20215;-78
2022/10/25 11:49:53;;;;;;;7.35;5.10;;;20.70;99.90;;;;;;5092618;28;20208;-78
2022/10/25 11:52:37;;;;;;;7.40;4.80;;;21.10;99.90;;;;;;5094337;28;20204;-77
2022/10/25 11:55:17;;;;;;;8.23;4.95;;;21.80;99.90;;;;;;5095755;28;20197;-70
2022/10/25 11:57:51;;;;;;;10.73;5.45;;;22.10;99.90;;;;;;5088413;28;20679;-75
2022/10/25 12:00:22;;;;;;;10.43;4.63;;;21.90;99.90;;;;;;5093247;28;20216;-74
2022/10/25 12:03:08;;;;;;;6.05;5.07;;;21.60;99.90;;;;;;5088816;28;20508;-74
2022/10/25 12:05:43;;;;;;;5.70;5.15;;;21.10;99.90;;;;;;5090117;28;20704;-74
2022/10/25 12:08:30;;;;;;;6.60;5.72;;;20.70;99.90;;;;;;5085499;28;20219;-76
2022/10/25 12:11:03;;;;;;;7.47;5.05;;;20.50;99.90;;;;;;5086830;28;20200;-73
2022/10/25 12:13:32;;;;;;;9.90;5.40;;;20.40;99.90;;;;;;5088731;28;20201;-73
2022/10/25 12:16:03;;;;;;;7.82;5.88;;;20.40;99.90;;;;;;5088600;28;20300;-71
2022/10/25 12:18:35;;;;;;;5.65;5.15;;;20.40;99.90;;;;;;5092238;28;20216;-75
2022/10/25 12:21:03;;;;;;;16.83;5.88;;;20.40;99.90;;;;;;5093970;28;20212;-76
2022/10/25 12:23:36;;;;;;;7.65;5.35;;;20.40;99.90;;;;;;5094480;28;20630;-76
2022/10/25 12:26:10;;;;;;;7.50;5.30;;;20.40;99.90;;;;;;5092822;28;20387;-81
2022/10/25 12:28:44;;;;;;;5.57;4.43;;;20.30;99.90;;;;;;5096938;28;20226;-76
2022/10/25 12:31:17;;;;;;;9.38;6.68;;;20.20;99.90;;;;;;5094294;28;20552;-76
2022/10/25 12:33:48;;;;;;;6.88;5.50;;;20.00;99.90;;;;;;5088297;28;20196;-77
2022/10/25 12:36:23;;;;;;;9.05;5.63;;;19.80;99.90;;;;;;5097670;28;20368;-77
2022/10/25 12:38:49;;;;;;;7.03;4.97;;;19.60;99.90;;;;;;5095342;28;20191;-77
2022/10/25 12:41:20;;;;;;;6.28;5.55;;;19.40;99.90;;;;;;5095218;28;20197;-77
2022/10/25 12:43:59;;;;;;;7.65;5.07;;;19.30;99.90;;;;;;5093828;28;20271;-76
2022/10/25 12:47:00;;;;;;;8.57;5.60;;;19.10;99.90;;;;;;5093642;28;20610;-77
2022/10/25 12:49:57;;;;;;;7.78;5.45;;;18.90;99.90;;;;;;5092517;28;20589;-77
2022/10/25 12:52:30;;;;;;;6.65;5.07;;;18.80;99.90;;;;;;5094934;28;20223;-77
2022/10/25 12:55:27;;;;;;;6.40;5.10;;;18.70;99.90;;;;;;5096361;28;20323;-76
2022/10/25 12:58:10;;;;;;;5.80;5.00;;;18.70;99.90;;;;;;5085963;28;20201;-77